sensor_id;sensor_type;location;lat;lon;timestamp;pressure;altitude;pressure_sealevel;temperature;humidity
50105;BME280;47690;39.202;-77.198;2024-01-10T00:01:59;97761.75;;;15.19;85.99
50105;BME280;47690;39.202;-77.198;2024-01-10T00:04:29;97761.66;;;15.20;85.94
50105;BME280;47690;39.202;-77.198;2024-01-10T00:06:59;97773.78;;;15.20;85.91
50105;BME280;47690;39.202;-77.198;2024-01-10T00:09:29;97787.59;;;15.20;86.11
50105;BME280;47690;39.202;-77.198;2024-01-10T00:11:59;97811.75;;;15.21;86.03
50105;BME280;47690;39.202;-77.198;2024-01-10T00:14:29;97830.63;;;15.23;86.12
50105;BME280;47690;39.202;-77.198;2024-01-10T00:16:59;97835.81;;;15.23;86.11
50105;BME280;47690;39.202;-77.198;2024-01-10T00:19:30;97822.75;;;15.24;86.23
50105;BME280;47690;39.202;-77.198;2024-01-10T00:21:59;97827.78;;;15.26;86.05
50105;BME280;47690;39.202;-77.198;2024-01-10T00:24:29;97830.38;;;15.26;86.21
50105;BME280;47690;39.202;-77.198;2024-01-10T00:26:58;97839.09;;;15.25;86.11
50105;BME280;47690;39.202;-77.198;2024-01-10T00:29:29;97856.22;;;15.27;86.31
50105;BME280;47690;39.202;-77.198;2024-01-10T00:32:00;97838.75;;;15.29;86.37
50105;BME280;47690;39.202;-77.198;2024-01-10T00:34:30;97842.19;;;15.30;86.12
50105;BME280;47690;39.202;-77.198;2024-01-10T00:36:59;97834.41;;;15.30;86.13
50105;BME280;47690;39.202;-77.198;2024-01-10T00:39:29;97833.47;;;15.31;86.02
50105;BME280;47690;39.202;-77.198;2024-01-10T00:41:59;97814.47;;;15.30;86.12
50105;BME280;47690;39.202;-77.198;2024-01-10T00:44:29;97759.06;;;15.32;86.21
50105;BME280;47690;39.202;-77.198;2024-01-10T00:46:59;97742.59;;;15.33;85.97
50105;BME280;47690;39.202;-77.198;2024-01-10T00:49:29;97722.75;;;15.32;86.30
50105;BME280;47690;39.202;-77.198;2024-01-10T00:52:01;97666.66;;;15.30;86.37
50105;BME280;47690;39.202;-77.198;2024-01-10T00:54:30;97632.25;;;15.28;86.20
50105;BME280;47690;39.202;-77.198;2024-01-10T00:57:00;97606.41;;;15.27;86.32
50105;BME280;47690;39.202;-77.198;2024-01-10T00:59:31;97561.63;;;15.25;86.31
50105;BME280;47690;39.202;-77.198;2024-01-10T01:02:00;97546.91;;;15.25;86.37
50105;BME280;47690;39.202;-77.198;2024-01-10T01:04:30;97532.16;;;15.26;86.66
50105;BME280;47690;39.202;-77.198;2024-01-10T01:06:59;97517.44;;;15.26;86.27
50105;BME280;47690;39.202;-77.198;2024-01-10T01:09:30;97496.69;;;15.26;86.71
50105;BME280;47690;39.202;-77.198;2024-01-10T01:11:59;97477.69;;;15.26;86.67
50105;BME280;47690;39.202;-77.198;2024-01-10T01:14:30;97432.94;;;15.24;86.81
50105;BME280;47690;39.202;-77.198;2024-01-10T01:17:00;97411.59;;;15.20;86.79
50105;BME280;47690;39.202;-77.198;2024-01-10T01:19:30;97417.84;;;15.18;87.14
50105;BME280;47690;39.202;-77.198;2024-01-10T01:21:59;97323.72;;;15.17;87.33
50105;BME280;47690;39.202;-77.198;2024-01-10T01:24:29;97319.44;;;15.16;87.46
50105;BME280;47690;39.202;-77.198;2024-01-10T01:26:59;97272.94;;;15.14;87.51
50105;BME280;47690;39.202;-77.198;2024-01-10T01:29:31;97319.72;;;15.13;87.66
50105;BME280;47690;39.202;-77.198;2024-01-10T01:32:00;97346.47;;;15.13;87.86
50105;BME280;47690;39.202;-77.198;2024-01-10T01:34:30;97327.38;;;15.14;88.01
50105;BME280;47690;39.202;-77.198;2024-01-10T01:36:59;97339.50;;;15.14;88.14
50105;BME280;47690;39.202;-77.198;2024-01-10T01:39:30;97318.63;;;15.15;88.18
50105;BME280;47690;39.202;-77.198;2024-01-10T01:41:59;97315.78;;;15.19;88.35
50105;BME280;47690;39.202;-77.198;2024-01-10T01:44:29;97294.09;;;15.20;88.21
50105;BME280;47690;39.202;-77.198;2024-01-10T01:47:01;97275.81;;;15.21;88.47
50105;BME280;47690;39.202;-77.198;2024-01-10T01:49:32;97300.00;;;15.22;88.36
50105;BME280;47690;39.202;-77.198;2024-01-10T01:52:01;97317.06;;;15.24;88.49
50105;BME280;47690;39.202;-77.198;2024-01-10T01:54:31;97299.84;;;15.23;88.69
50105;BME280;47690;39.202;-77.198;2024-01-10T01:57:02;97285.13;;;15.24;88.63
50105;BME280;47690;39.202;-77.198;2024-01-10T01:59:32;97260.16;;;15.23;88.55
50105;BME280;47690;39.202;-77.198;2024-01-10T02:02:03;97289.34;;;15.25;88.64
50105;BME280;47690;39.202;-77.198;2024-01-10T02:04:38;97301.25;;;15.27;88.59
50105;BME280;47690;39.202;-77.198;2024-01-10T02:07:08;97300.19;;;15.30;88.46
50105;BME280;47690;39.202;-77.198;2024-01-10T02:09:37;97292.25;;;15.32;88.74
50105;BME280;47690;39.202;-77.198;2024-01-10T02:12:06;97286.00;;;15.34;88.59
50105;BME280;47690;39.202;-77.198;2024-01-10T02:14:36;97278.22;;;15.34;88.46
50105;BME280;47690;39.202;-77.198;2024-01-10T02:17:04;97286.72;;;15.36;88.58
50105;BME280;47690;39.202;-77.198;2024-01-10T02:19:34;97281.53;;;15.36;88.53
50105;BME280;47690;39.202;-77.198;2024-01-10T02:22:07;97260.50;;;15.39;88.63
50105;BME280;47690;39.202;-77.198;2024-01-10T02:24:35;97244.84;;;15.41;88.39
50105;BME280;47690;39.202;-77.198;2024-01-10T02:27:04;97236.09;;;15.42;88.37
50105;BME280;47690;39.202;-77.198;2024-01-10T02:29:34;97237.63;;;15.45;88.45
50105;BME280;47690;39.202;-77.198;2024-01-10T02:32:07;97246.09;;;15.47;88.42
50105;BME280;47690;39.202;-77.198;2024-01-10T02:34:39;97242.53;;;15.48;88.42
50105;BME280;47690;39.202;-77.198;2024-01-10T02:37:08;97271.91;;;15.48;88.39
50105;BME280;47690;39.202;-77.198;2024-01-10T02:39:36;97243.22;;;15.50;88.29
50105;BME280;47690;39.202;-77.198;2024-01-10T02:42:05;97235.31;;;15.51;88.29
50105;BME280;47690;39.202;-77.198;2024-01-10T02:44:33;97222.22;;;15.53;88.32
50105;BME280;47690;39.202;-77.198;2024-01-10T02:47:02;97214.34;;;15.54;88.43
50105;BME280;47690;39.202;-77.198;2024-01-10T02:49:31;97196.03;;;15.56;88.81
50105;BME280;47690;39.202;-77.198;2024-01-10T02:51:59;97198.38;;;15.59;88.67
50105;BME280;47690;39.202;-77.198;2024-01-10T02:54:30;97159.31;;;15.61;88.69
50105;BME280;47690;39.202;-77.198;2024-01-10T02:56:59;97158.22;;;15.63;88.77
50105;BME280;47690;39.202;-77.198;2024-01-10T02:59:29;97157.03;;;15.67;88.93
50105;BME280;47690;39.202;-77.198;2024-01-10T03:01:57;97145.81;;;15.67;88.79
50105;BME280;47690;39.202;-77.198;2024-01-10T03:04:27;97143.94;;;15.69;88.94
50105;BME280;47690;39.202;-77.198;2024-01-10T03:06:57;97147.06;;;15.73;88.92
50105;BME280;47690;39.202;-77.198;2024-01-10T03:09:26;97139.97;;;15.75;89.00
50105;BME280;47690;39.202;-77.198;2024-01-10T03:11:58;97125.75;;;15.79;88.96
50105;BME280;47690;39.202;-77.198;2024-01-10T03:14:29;97131.78;;;15.79;89.08
50105;BME280;47690;39.202;-77.198;2024-01-10T03:16:59;97142.03;;;15.81;88.87
50105;BME280;47690;39.202;-77.198;2024-01-10T03:19:28;97146.16;;;15.83;88.87
50105;BME280;47690;39.202;-77.198;2024-01-10T03:21:58;97153.66;;;15.87;88.80
50105;BME280;47690;39.202;-77.198;2024-01-10T03:24:26;97149.84;;;15.91;88.60
50105;BME280;47690;39.202;-77.198;2024-01-10T03:26:57;97144.53;;;15.92;88.53
50105;BME280;47690;39.202;-77.198;2024-01-10T03:29:27;97134.03;;;15.94;88.44
50105;BME280;47690;39.202;-77.198;2024-01-10T03:31:57;97138.25;;;15.95;88.36
50105;BME280;47690;39.202;-77.198;2024-01-10T03:34:29;97140.75;;;15.96;88.45
50105;BME280;47690;39.202;-77.198;2024-01-10T03:36:58;97142.66;;;15.94;88.63
50105;BME280;47690;39.202;-77.198;2024-01-10T03:39:28;97146.88;;;15.95;88.62
50105;BME280;47690;39.202;-77.198;2024-01-10T03:41:58;97139.09;;;15.95;88.67
50105;BME280;47690;39.202;-77.198;2024-01-10T03:44:27;97137.19;;;15.97;88.54
50105;BME280;47690;39.202;-77.198;2024-01-10T03:46:56;97134.47;;;15.99;88.48
50105;BME280;47690;39.202;-77.198;2024-01-10T03:49:26;97149.19;;;15.98;88.31
50105;BME280;47690;39.202;-77.198;2024-01-10T03:51:55;97147.44;;;15.99;88.34
50105;BME280;47690;39.202;-77.198;2024-01-10T03:54:25;97142.25;;;15.99;88.35
50105;BME280;47690;39.202;-77.198;2024-01-10T03:56:55;97129.28;;;15.99;88.11
50105;BME280;47690;39.202;-77.198;2024-01-10T03:59:26;97121.47;;;15.99;88.33
50105;BME280;47690;39.202;-77.198;2024-01-10T04:01:55;97120.53;;;16.00;88.38
50105;BME280;47690;39.202;-77.198;2024-01-10T04:04:26;97120.38;;;16.02;88.30
50105;BME280;47690;39.202;-77.198;2024-01-10T04:06:54;97104.78;;;16.02;88.11
50105;BME280;47690;39.202;-77.198;2024-01-10T04:09:24;97102.19;;;16.02;88.23
50105;BME280;47690;39.202;-77.198;2024-01-10T04:11:54;97105.75;;;16.01;88.10
50105;BME280;47690;39.202;-77.198;2024-01-10T04:14:24;97101.50;;;16.00;88.12
50105;BME280;47690;39.202;-77.198;2024-01-10T04:16:54;97103.31;;;15.99;87.93
50105;BME280;47690;39.202;-77.198;2024-01-10T04:19:25;97085.25;;;15.97;88.10
50105;BME280;47690;39.202;-77.198;2024-01-10T04:21:55;97082.78;;;15.96;87.93
50105;BME280;47690;39.202;-77.198;2024-01-10T04:24:26;97093.19;;;15.96;87.93
50105;BME280;47690;39.202;-77.198;2024-01-10T04:26:55;97084.72;;;15.94;87.61
50105;BME280;47690;39.202;-77.198;2024-01-10T04:29:24;97085.69;;;15.93;87.70
50105;BME280;47690;39.202;-77.198;2024-01-10T04:31:59;97080.72;;;15.90;87.89
50105;BME280;47690;39.202;-77.198;2024-01-10T04:34:29;97082.50;;;15.89;87.48
50105;BME280;47690;39.202;-77.198;2024-01-10T04:36:59;97090.13;;;15.81;87.34
50105;BME280;47690;39.202;-77.198;2024-01-10T04:39:29;97091.09;;;15.80;87.12
50105;BME280;47690;39.202;-77.198;2024-01-10T04:41:59;97084.41;;;15.77;86.95
50105;BME280;47690;39.202;-77.198;2024-01-10T04:44:29;97087.25;;;15.74;86.91
50105;BME280;47690;39.202;-77.198;2024-01-10T04:46:58;97079.75;;;15.71;86.41
50105;BME280;47690;39.202;-77.198;2024-01-10T04:49:29;97079.19;;;15.67;86.37
50105;BME280;47690;39.202;-77.198;2024-01-10T04:51:59;97090.66;;;15.65;86.18
50105;BME280;47690;39.202;-77.198;2024-01-10T04:54:29;97091.06;;;15.60;85.89
50105;BME280;47690;39.202;-77.198;2024-01-10T04:56:59;97080.91;;;15.57;85.76
50105;BME280;47690;39.202;-77.198;2024-01-10T04:59:29;97082.97;;;15.53;85.47
50105;BME280;47690;39.202;-77.198;2024-01-10T05:01:59;97093.75;;;15.49;85.22
50105;BME280;47690;39.202;-77.198;2024-01-10T05:04:28;97090.59;;;15.45;85.02
50105;BME280;47690;39.202;-77.198;2024-01-10T05:06:57;97097.81;;;15.41;84.85
50105;BME280;47690;39.202;-77.198;2024-01-10T05:09:26;97104.91;;;15.39;84.73
50105;BME280;47690;39.202;-77.198;2024-01-10T05:11:56;97113.09;;;15.35;84.30
50105;BME280;47690;39.202;-77.198;2024-01-10T05:14:26;97109.25;;;15.29;84.06
50105;BME280;47690;39.202;-77.198;2024-01-10T05:16:56;97114.00;;;15.24;83.88
50105;BME280;47690;39.202;-77.198;2024-01-10T05:19:25;97119.69;;;15.18;83.43
50105;BME280;47690;39.202;-77.198;2024-01-10T05:21:55;97113.16;;;15.13;83.27
50105;BME280;47690;39.202;-77.198;2024-01-10T05:24:25;97110.91;;;15.09;82.90
50105;BME280;47690;39.202;-77.198;2024-01-10T05:26:55;97124.25;;;15.04;82.70
50105;BME280;47690;39.202;-77.198;2024-01-10T05:29:25;97129.16;;;14.97;82.50
50105;BME280;47690;39.202;-77.198;2024-01-10T05:31:57;97129.38;;;14.94;82.33
50105;BME280;47690;39.202;-77.198;2024-01-10T05:34:29;97127.19;;;14.89;82.56
50105;BME280;47690;39.202;-77.198;2024-01-10T05:36:58;97126.38;;;14.89;82.26
50105;BME280;47690;39.202;-77.198;2024-01-10T05:39:29;97124.84;;;14.86;82.17
50105;BME280;47690;39.202;-77.198;2024-01-10T05:41:59;97132.88;;;14.83;82.14
50105;BME280;47690;39.202;-77.198;2024-01-10T05:44:31;97133.41;;;14.77;81.99
50105;BME280;47690;39.202;-77.198;2024-01-10T05:47:00;97146.59;;;14.74;81.99
50105;BME280;47690;39.202;-77.198;2024-01-10T05:49:29;97133.88;;;14.71;82.07
50105;BME280;47690;39.202;-77.198;2024-01-10T05:51:58;97146.00;;;14.70;82.17
50105;BME280;47690;39.202;-77.198;2024-01-10T05:54:27;97157.69;;;14.65;81.82
50105;BME280;47690;39.202;-77.198;2024-01-10T05:56:56;97157.00;;;14.63;81.99
50105;BME280;47690;39.202;-77.198;2024-01-10T05:59:26;97151.25;;;14.59;81.78
50105;BME280;47690;39.202;-77.198;2024-01-10T06:01:57;97159.97;;;14.58;81.82
50105;BME280;47690;39.202;-77.198;2024-01-10T06:04:28;97165.94;;;14.58;81.85
50105;BME280;47690;39.202;-77.198;2024-01-10T06:07:00;97161.72;;;14.57;81.88
50105;BME280;47690;39.202;-77.198;2024-01-10T06:09:29;97159.41;;;14.54;81.71
50105;BME280;47690;39.202;-77.198;2024-01-10T06:11:59;97153.50;;;14.52;81.58
50105;BME280;47690;39.202;-77.198;2024-01-10T06:14:27;97158.81;;;14.51;81.42
50105;BME280;47690;39.202;-77.198;2024-01-10T06:16:57;97162.59;;;14.46;81.23
50105;BME280;47690;39.202;-77.198;2024-01-10T06:19:30;97186.97;;;14.44;81.09
50105;BME280;47690;39.202;-77.198;2024-01-10T06:21:59;97188.16;;;14.40;81.20
50105;BME280;47690;39.202;-77.198;2024-01-10T06:24:29;97192.63;;;14.38;81.27
50105;BME280;47690;39.202;-77.198;2024-01-10T06:27:00;97218.66;;;14.36;81.65
50105;BME280;47690;39.202;-77.198;2024-01-10T06:29:29;97235.94;;;14.36;81.42
50105;BME280;47690;39.202;-77.198;2024-01-10T06:32:01;97235.13;;;14.35;81.51
50105;BME280;47690;39.202;-77.198;2024-01-10T06:34:31;97225.84;;;14.32;81.23
50105;BME280;47690;39.202;-77.198;2024-01-10T06:37:00;97248.56;;;14.29;80.36
50105;BME280;47690;39.202;-77.198;2024-01-10T06:39:29;97258.56;;;14.22;79.34
50105;BME280;47690;39.202;-77.198;2024-01-10T06:41:58;97262.09;;;14.10;77.90
50105;BME280;47690;39.202;-77.198;2024-01-10T06:44:28;97274.13;;;13.99;77.01
50105;BME280;47690;39.202;-77.198;2024-01-10T06:46:56;97272.94;;;13.92;76.79
50105;BME280;47690;39.202;-77.198;2024-01-10T06:49:25;97282.00;;;13.86;76.33
50105;BME280;47690;39.202;-77.198;2024-01-10T06:51:56;97273.88;;;13.79;75.60
50105;BME280;47690;39.202;-77.198;2024-01-10T06:54:26;97281.19;;;13.74;75.24
50105;BME280;47690;39.202;-77.198;2024-01-10T06:56:55;97275.53;;;13.69;74.59
50105;BME280;47690;39.202;-77.198;2024-01-10T06:59:25;97277.63;;;13.64;74.08
50105;BME280;47690;39.202;-77.198;2024-01-10T07:01:55;97273.75;;;13.58;74.00
50105;BME280;47690;39.202;-77.198;2024-01-10T07:04:30;97292.91;;;13.56;73.83
50105;BME280;47690;39.202;-77.198;2024-01-10T07:07:00;97297.81;;;13.47;72.83
50105;BME280;47690;39.202;-77.198;2024-01-10T07:09:31;97283.56;;;13.42;72.77
50105;BME280;47690;39.202;-77.198;2024-01-10T07:12:00;97287.56;;;13.34;72.32
50105;BME280;47690;39.202;-77.198;2024-01-10T07:14:29;97285.19;;;13.31;72.09
50105;BME280;47690;39.202;-77.198;2024-01-10T07:16:58;97279.53;;;13.26;71.70
50105;BME280;47690;39.202;-77.198;2024-01-10T07:19:29;97294.31;;;13.24;71.65
50105;BME280;47690;39.202;-77.198;2024-01-10T07:21:57;97295.50;;;13.20;71.42
50105;BME280;47690;39.202;-77.198;2024-01-10T07:24:26;97297.47;;;13.16;70.73
50105;BME280;47690;39.202;-77.198;2024-01-10T07:26:59;97299.56;;;13.11;70.78
50105;BME280;47690;39.202;-77.198;2024-01-10T07:29:28;97295.44;;;13.08;70.18
50105;BME280;47690;39.202;-77.198;2024-01-10T07:31:57;97302.38;;;13.08;70.59
50105;BME280;47690;39.202;-77.198;2024-01-10T07:34:29;97301.78;;;13.04;69.74
50105;BME280;47690;39.202;-77.198;2024-01-10T07:36:59;97302.94;;;13.00;69.75
50105;BME280;47690;39.202;-77.198;2024-01-10T07:39:28;97313.59;;;12.95;68.63
50105;BME280;47690;39.202;-77.198;2024-01-10T07:41:57;97326.25;;;12.87;68.46
50105;BME280;47690;39.202;-77.198;2024-01-10T07:44:26;97330.91;;;12.82;68.00
50105;BME280;47690;39.202;-77.198;2024-01-10T07:46:55;97335.47;;;12.78;67.98
50105;BME280;47690;39.202;-77.198;2024-01-10T07:49:24;97342.63;;;12.75;67.81
50105;BME280;47690;39.202;-77.198;2024-01-10T07:51:56;97348.00;;;12.72;67.75
50105;BME280;47690;39.202;-77.198;2024-01-10T07:54:26;97353.19;;;12.72;67.50
50105;BME280;47690;39.202;-77.198;2024-01-10T07:56:55;97356.91;;;12.67;67.61
50105;BME280;47690;39.202;-77.198;2024-01-10T07:59:24;97350.19;;;12.65;67.52
50105;BME280;47690;39.202;-77.198;2024-01-10T08:01:55;97358.38;;;12.59;66.37
50105;BME280;47690;39.202;-77.198;2024-01-10T08:04:27;97372.53;;;12.53;66.42
50105;BME280;47690;39.202;-77.198;2024-01-10T08:06:56;97364.28;;;12.48;65.94
50105;BME280;47690;39.202;-77.198;2024-01-10T08:09:27;97376.47;;;12.46;66.17
50105;BME280;47690;39.202;-77.198;2024-01-10T08:11:56;97373.38;;;12.40;65.52
50105;BME280;47690;39.202;-77.198;2024-01-10T08:14:29;97371.09;;;12.36;65.78
50105;BME280;47690;39.202;-77.198;2024-01-10T08:16:57;97373.69;;;12.36;65.75
50105;BME280;47690;39.202;-77.198;2024-01-10T08:19:29;97382.59;;;12.32;65.27
50105;BME280;47690;39.202;-77.198;2024-01-10T08:21:57;97378.34;;;12.31;65.40
50105;BME280;47690;39.202;-77.198;2024-01-10T08:24:27;97380.31;;;12.27;65.01
50105;BME280;47690;39.202;-77.198;2024-01-10T08:26:58;97381.34;;;12.24;64.65
50105;BME280;47690;39.202;-77.198;2024-01-10T08:29:26;97385.91;;;12.21;64.84
50105;BME280;47690;39.202;-77.198;2024-01-10T08:32:00;97385.81;;;12.22;65.18
50105;BME280;47690;39.202;-77.198;2024-01-10T08:34:34;97386.00;;;12.19;64.20
50105;BME280;47690;39.202;-77.198;2024-01-10T08:37:03;97393.81;;;12.18;64.70
50105;BME280;47690;39.202;-77.198;2024-01-10T08:39:31;97402.50;;;12.16;64.49
50105;BME280;47690;39.202;-77.198;2024-01-10T08:42:00;97404.38;;;12.14;64.17
50105;BME280;47690;39.202;-77.198;2024-01-10T08:44:29;97418.38;;;12.10;63.96
50105;BME280;47690;39.202;-77.198;2024-01-10T08:47:04;97422.84;;;12.08;62.98
50105;BME280;47690;39.202;-77.198;2024-01-10T08:49:33;97431.59;;;12.06;63.53
50105;BME280;47690;39.202;-77.198;2024-01-10T08:52:01;97425.78;;;12.02;63.08
50105;BME280;47690;39.202;-77.198;2024-01-10T08:54:30;97429.31;;;12.01;63.30
50105;BME280;47690;39.202;-77.198;2024-01-10T08:56:58;97436.31;;;11.99;63.19
50105;BME280;47690;39.202;-77.198;2024-01-10T08:59:29;97431.25;;;11.97;62.68
50105;BME280;47690;39.202;-77.198;2024-01-10T09:01:59;97427.97;;;11.95;62.99
50105;BME280;47690;39.202;-77.198;2024-01-10T09:04:29;97433.13;;;11.95;62.57
50105;BME280;47690;39.202;-77.198;2024-01-10T09:06:59;97437.75;;;11.90;62.51
50105;BME280;47690;39.202;-77.198;2024-01-10T09:09:27;97418.25;;;11.86;62.52
50105;BME280;47690;39.202;-77.198;2024-01-10T09:11:57;97421.78;;;11.85;62.25
50105;BME280;47690;39.202;-77.198;2024-01-10T09:14:26;97440.63;;;11.85;62.73
50105;BME280;47690;39.202;-77.198;2024-01-10T09:16:56;97429.59;;;11.83;62.89
50105;BME280;47690;39.202;-77.198;2024-01-10T09:19:27;97434.03;;;11.81;62.43
50105;BME280;47690;39.202;-77.198;2024-01-10T09:21:56;97435.78;;;11.81;62.70
50105;BME280;47690;39.202;-77.198;2024-01-10T09:24:26;97432.56;;;11.77;62.63
50105;BME280;47690;39.202;-77.198;2024-01-10T09:26:58;97439.47;;;11.77;62.72
50105;BME280;47690;39.202;-77.198;2024-01-10T09:29:27;97447.34;;;11.75;62.27
50105;BME280;47690;39.202;-77.198;2024-01-10T09:31:57;97450.09;;;11.72;62.15
50105;BME280;47690;39.202;-77.198;2024-01-10T09:34:27;97457.09;;;11.70;62.40
50105;BME280;47690;39.202;-77.198;2024-01-10T09:36:56;97474.44;;;11.68;62.23
50105;BME280;47690;39.202;-77.198;2024-01-10T09:39:25;97482.34;;;11.65;62.04
50105;BME280;47690;39.202;-77.198;2024-01-10T09:41:55;97477.41;;;11.61;62.23
50105;BME280;47690;39.202;-77.198;2024-01-10T09:44:25;97471.41;;;11.61;62.12
50105;BME280;47690;39.202;-77.198;2024-01-10T09:46:55;97481.84;;;11.59;62.24
50105;BME280;47690;39.202;-77.198;2024-01-10T09:49:25;97492.25;;;11.58;62.20
50105;BME280;47690;39.202;-77.198;2024-01-10T09:51:58;97491.53;;;11.56;62.22
50105;BME280;47690;39.202;-77.198;2024-01-10T09:54:32;97505.31;;;11.55;61.85
50105;BME280;47690;39.202;-77.198;2024-01-10T09:57:03;97502.00;;;11.53;61.93
50105;BME280;47690;39.202;-77.198;2024-01-10T09:59:32;97498.72;;;11.51;62.00
50105;BME280;47690;39.202;-77.198;2024-01-10T10:02:03;97497.88;;;11.50;62.06
50105;BME280;47690;39.202;-77.198;2024-01-10T10:04:34;97502.38;;;11.46;62.01
50105;BME280;47690;39.202;-77.198;2024-01-10T10:07:04;97514.47;;;11.46;61.92
50105;BME280;47690;39.202;-77.198;2024-01-10T10:09:32;97528.28;;;11.45;61.95
50105;BME280;47690;39.202;-77.198;2024-01-10T10:12:01;97527.53;;;11.43;61.86
50105;BME280;47690;39.202;-77.198;2024-01-10T10:14:30;97520.72;;;11.42;61.80
50105;BME280;47690;39.202;-77.198;2024-01-10T10:17:18;97525.72;;;11.45;60.62
50105;BME280;47690;39.202;-77.198;2024-01-10T10:19:47;97520.81;;;11.40;61.07
50105;BME280;47690;39.202;-77.198;2024-01-10T10:22:17;97519.16;;;11.39;60.96
50105;BME280;47690;39.202;-77.198;2024-01-10T10:24:48;97533.91;;;11.37;60.63
50105;BME280;47690;39.202;-77.198;2024-01-10T10:27:17;97534.84;;;11.36;60.13
50105;BME280;47690;39.202;-77.198;2024-01-10T10:29:45;97543.66;;;11.32;59.66
50105;BME280;47690;39.202;-77.198;2024-01-10T10:32:15;97552.53;;;11.28;59.15
50105;BME280;47690;39.202;-77.198;2024-01-10T10:34:47;97559.63;;;11.24;59.00
50105;BME280;47690;39.202;-77.198;2024-01-10T10:37:16;97569.28;;;11.20;59.01
50105;BME280;47690;39.202;-77.198;2024-01-10T10:39:44;97575.63;;;11.15;58.39
50105;BME280;47690;39.202;-77.198;2024-01-10T10:42:13;97581.78;;;11.12;58.40
50105;BME280;47690;39.202;-77.198;2024-01-10T10:44:44;97578.47;;;11.10;58.23
50105;BME280;47690;39.202;-77.198;2024-01-10T10:47:15;97577.00;;;11.06;58.39
50105;BME280;47690;39.202;-77.198;2024-01-10T10:49:51;97589.81;;;11.07;58.08
50105;BME280;47690;39.202;-77.198;2024-01-10T10:52:23;97584.81;;;11.04;58.11
50105;BME280;47690;39.202;-77.198;2024-01-10T10:54:53;97592.56;;;11.04;58.11
50105;BME280;47690;39.202;-77.198;2024-01-10T10:57:25;97590.81;;;11.05;57.93
50105;BME280;47690;39.202;-77.198;2024-01-10T10:59:55;97591.81;;;11.02;57.64
50105;BME280;47690;39.202;-77.198;2024-01-10T11:02:26;97598.53;;;11.05;57.67
50105;BME280;47690;39.202;-77.198;2024-01-10T11:05:06;97601.13;;;11.05;57.45
50105;BME280;47690;39.202;-77.198;2024-01-10T11:07:41;97594.31;;;11.04;57.49
50105;BME280;47690;39.202;-77.198;2024-01-10T11:10:21;97604.63;;;11.04;56.89
50105;BME280;47690;39.202;-77.198;2024-01-10T11:18:59;97628.06;;;10.99;55.92
50105;BME280;47690;39.202;-77.198;2024-01-10T11:24:24;97642.13;;;10.93;56.07
50105;BME280;47690;39.202;-77.198;2024-01-10T11:27:15;97654.06;;;10.95;55.10
50105;BME280;47690;39.202;-77.198;2024-01-10T11:29:48;97659.41;;;10.91;56.34
50105;BME280;47690;39.202;-77.198;2024-01-10T11:32:22;97668.81;;;10.92;56.25
50105;BME280;47690;39.202;-77.198;2024-01-10T11:35:15;97674.03;;;10.91;55.44
50105;BME280;47690;39.202;-77.198;2024-01-10T11:37:47;97681.09;;;10.87;56.04
50105;BME280;47690;39.202;-77.198;2024-01-10T11:40:47;97682.69;;;10.90;55.07
50105;BME280;47690;39.202;-77.198;2024-01-10T11:43:19;97699.97;;;10.88;55.92
50105;BME280;47690;39.202;-77.198;2024-01-10T11:45:56;97704.22;;;10.89;55.31
50105;BME280;47690;39.202;-77.198;2024-01-10T11:48:28;97710.19;;;10.89;55.59
50105;BME280;47690;39.202;-77.198;2024-01-10T11:51:00;97716.25;;;10.88;55.59
50105;BME280;47690;39.202;-77.198;2024-01-10T11:53:42;97718.94;;;10.87;54.66
50105;BME280;47690;39.202;-77.198;2024-01-10T11:56:15;97728.38;;;10.86;54.98
50105;BME280;47690;39.202;-77.198;2024-01-10T11:59:16;97737.94;;;10.84;53.13
50105;BME280;47690;39.202;-77.198;2024-01-10T12:01:46;97740.88;;;10.78;53.64
50105;BME280;47690;39.202;-77.198;2024-01-10T12:04:16;97748.13;;;10.71;53.71
50105;BME280;47690;39.202;-77.198;2024-01-10T12:06:57;97764.72;;;10.65;53.20
50105;BME280;47690;39.202;-77.198;2024-01-10T12:09:29;97768.38;;;10.61;52.52
50105;BME280;47690;39.202;-77.198;2024-01-10T12:11:59;97780.69;;;10.56;52.48
50105;BME280;47690;39.202;-77.198;2024-01-10T12:14:29;97784.56;;;10.47;52.09
50105;BME280;47690;39.202;-77.198;2024-01-10T12:16:59;97790.94;;;10.40;51.28
50105;BME280;47690;39.202;-77.198;2024-01-10T12:19:28;97793.69;;;10.37;51.69
50105;BME280;47690;39.202;-77.198;2024-01-10T12:21:58;97805.81;;;10.35;51.56
50105;BME280;47690;39.202;-77.198;2024-01-10T12:24:28;97802.41;;;10.34;51.63
50105;BME280;47690;39.202;-77.198;2024-01-10T12:27:00;97814.53;;;10.32;51.28
50105;BME280;47690;39.202;-77.198;2024-01-10T12:29:31;97813.13;;;10.27;51.09
50105;BME280;47690;39.202;-77.198;2024-01-10T12:32:01;97821.91;;;10.22;51.14
50105;BME280;47690;39.202;-77.198;2024-01-10T12:34:33;97829.84;;;10.18;50.79
50105;BME280;47690;39.202;-77.198;2024-01-10T12:37:02;97852.28;;;10.16;50.78
50105;BME280;47690;39.202;-77.198;2024-01-10T12:39:33;97852.41;;;10.13;51.29
50105;BME280;47690;39.202;-77.198;2024-01-10T12:42:03;97864.53;;;10.10;51.02
50105;BME280;47690;39.202;-77.198;2024-01-10T12:44:33;97876.47;;;10.11;51.40
50105;BME280;47690;39.202;-77.198;2024-01-10T12:47:02;97867.91;;;10.11;50.81
50105;BME280;47690;39.202;-77.198;2024-01-10T12:49:31;97883.44;;;10.09;51.13
50105;BME280;47690;39.202;-77.198;2024-01-10T12:52:00;97877.53;;;10.07;50.89
50105;BME280;47690;39.202;-77.198;2024-01-10T12:54:34;97883.69;;;10.05;50.53
50105;BME280;47690;39.202;-77.198;2024-01-10T12:57:02;97896.53;;;10.05;51.25
50105;BME280;47690;39.202;-77.198;2024-01-10T12:59:33;97908.56;;;10.04;51.18
50105;BME280;47690;39.202;-77.198;2024-01-10T13:02:03;97918.00;;;10.04;51.17
50105;BME280;47690;39.202;-77.198;2024-01-10T13:04:31;97923.16;;;10.04;51.26
50105;BME280;47690;39.202;-77.198;2024-01-10T13:07:01;97921.50;;;10.03;51.14